Airfield :
LOGIN :

Register | Disclaimer

   EN    FR    IT 

 










Legend :    VFR   Marginal VFR   IFR   Intensive IFR   Very Intensive IFR
Visi :
Ceiling :
>= 8 km
>= 3000ft
5 to 8 km
1000 to 3000 ft
1500m to 5 km
500 to 1000 ft
800 to 1500m
200 to 500 ft
< 800m
< 200 ft
Symbols :   Thunderstorms  Fog  Heavy snow  Heavy precipitations  Wind > 20 kt
SIGMETs :     Misc.  Thunderstorms  Icing  Turbulence  Mountain Waves  Volcanic Ashes







- Airport Elevation : 267 ft


EGDR - Culdrose Navy

CURRENT METAR :
  • 181450Z 24009KT 0800 FG SCT000 OVC001 16/15 Q1023 RED NOSIG

EXPIRED METARs :
  • 181350Z 24008KT 0900 FG SCT000 BKN001 OVC002 16/15 Q1023 RED NOSIG
  • 181250Z 24008KT 0400 FG VV/// 15/15 Q1022 RED NOSIG

TAF AMD TAF EGDR
Valid from the 18 at 09:00 until the 18 at 18:00 UTC


180756Z 1809/1818 26008KT 9999 FEW008 BKN015
TEMPO 1809/1812 6000 -DZ SCT008 BKN012
BECMG 1812/1816 22010KT 3500 -RADZ BKN004 OVC010
PROB30
TEMPO 1813/1818 1500 BR SCT001 OVC005
No reported NOTAMs for that airfield.
1 SIGMET reported for the London FIR (EGTT) :
 
Severe mountain waves
EGTT SIGMET 02 VALID 181400/181800 EGRR
EGTT LONDON FIR SEV MTW FCST WI N5500 E00014 - N5327 E00025 - N5320 W00228 - N5441 W00418 - N5500 W00437 - N5500 E00014 FL040/240 STNR NC=



MET'MAP, your aeronautical weather chart ! - Copyright ORBIFLY December 2007 - Disclaimer

ORBIFLY MET'MAP TEAM :

Programming & Development : Alexandra Zaïnal
Concept & Development : Baudouin d'Aumeries
Co-Development & Prog : Marc-Olivier Méhu
Technical & hardware support : Manuel Goepfert

Contact : metmap@orbifly.com




SOURCES & CREDITS :

   NOAA